sensor_id;sensor_type;location;lat;lon;timestamp;P1;durP1;ratioP1;P2;durP2;ratioP2
25653;SDS011;13511;48.622;9.230;2023-03-01T00:01:26;30.10;;;21.95;;
25653;SDS011;13511;48.622;9.230;2023-03-01T00:03:52;31.67;;;22.67;;
25653;SDS011;13511;48.622;9.230;2023-03-01T00:06:19;27.05;;;22.08;;
25653;SDS011;13511;48.622;9.230;2023-03-01T00:08:45;28.35;;;22.77;;
25653;SDS011;13511;48.622;9.230;2023-03-01T00:11:15;29.27;;;22.35;;
25653;SDS011;13511;48.622;9.230;2023-03-01T00:13:42;28.90;;;23.15;;
25653;SDS011;13511;48.622;9.230;2023-03-01T00:16:09;26.83;;;22.77;;
25653;SDS011;13511;48.622;9.230;2023-03-01T00:18:35;24.90;;;22.27;;
25653;SDS011;13511;48.622;9.230;2023-03-01T00:21:01;27.15;;;21.45;;
25653;SDS011;13511;48.622;9.230;2023-03-01T00:23:27;26.60;;;22.73;;
25653;SDS011;13511;48.622;9.230;2023-03-01T00:25:54;26.17;;;21.95;;
25653;SDS011;13511;48.622;9.230;2023-03-01T00:28:20;25.20;;;20.95;;
25653;SDS011;13511;48.622;9.230;2023-03-01T00:30:46;24.88;;;21.63;;
25653;SDS011;13511;48.622;9.230;2023-03-01T00:33:12;28.77;;;22.35;;
25653;SDS011;13511;48.622;9.230;2023-03-01T00:35:38;25.92;;;23.08;;
25653;SDS011;13511;48.622;9.230;2023-03-01T00:38:05;25.98;;;21.20;;
25653;SDS011;13511;48.622;9.230;2023-03-01T00:40:31;26.83;;;21.98;;
25653;SDS011;13511;48.622;9.230;2023-03-01T00:42:58;26.92;;;21.15;;
25653;SDS011;13511;48.622;9.230;2023-03-01T00:45:24;31.55;;;24.00;;
25653;SDS011;13511;48.622;9.230;2023-03-01T00:47:50;30.70;;;22.90;;
25653;SDS011;13511;48.622;9.230;2023-03-01T00:50:17;28.67;;;22.85;;
25653;SDS011;13511;48.622;9.230;2023-03-01T00:52:43;30.13;;;23.52;;
25653;SDS011;13511;48.622;9.230;2023-03-01T00:55:09;27.88;;;23.50;;
25653;SDS011;13511;48.622;9.230;2023-03-01T00:57:36;27.42;;;23.08;;
25653;SDS011;13511;48.622;9.230;2023-03-01T01:00:03;30.60;;;23.75;;
25653;SDS011;13511;48.622;9.230;2023-03-01T01:02:31;29.75;;;23.98;;
25653;SDS011;13511;48.622;9.230;2023-03-01T01:04:58;30.13;;;24.38;;
25653;SDS011;13511;48.622;9.230;2023-03-01T01:07:24;30.27;;;24.02;;
25653;SDS011;13511;48.622;9.230;2023-03-01T01:09:50;31.48;;;24.13;;
25653;SDS011;13511;48.622;9.230;2023-03-01T01:12:16;33.75;;;24.98;;
25653;SDS011;13511;48.622;9.230;2023-03-01T01:14:42;32.33;;;25.15;;
25653;SDS011;13511;48.622;9.230;2023-03-01T01:17:08;33.50;;;25.42;;
25653;SDS011;13511;48.622;9.230;2023-03-01T01:19:34;32.22;;;24.55;;
25653;SDS011;13511;48.622;9.230;2023-03-01T01:22:00;28.25;;;23.85;;
25653;SDS011;13511;48.622;9.230;2023-03-01T01:24:26;39.33;;;25.60;;
25653;SDS011;13511;48.622;9.230;2023-03-01T01:26:52;32.00;;;26.02;;
25653;SDS011;13511;48.622;9.230;2023-03-01T01:29:18;32.40;;;25.23;;
25653;SDS011;13511;48.622;9.230;2023-03-01T01:31:44;35.50;;;25.38;;
25653;SDS011;13511;48.622;9.230;2023-03-01T01:34:13;33.83;;;24.98;;
25653;SDS011;13511;48.622;9.230;2023-03-01T01:36:39;34.40;;;24.55;;
25653;SDS011;13511;48.622;9.230;2023-03-01T01:39:05;31.85;;;25.10;;
25653;SDS011;13511;48.622;9.230;2023-03-01T01:41:32;33.33;;;23.90;;
25653;SDS011;13511;48.622;9.230;2023-03-01T01:46:58;31.67;;;24.92;;
25653;SDS011;13511;48.622;9.230;2023-03-01T01:49:48;33.63;;;25.33;;
25653;SDS011;13511;48.622;9.230;2023-03-01T01:57:12;34.50;;;25.20;;
25653;SDS011;13511;48.622;9.230;2023-03-01T01:59:40;31.65;;;23.83;;
25653;SDS011;13511;48.622;9.230;2023-03-01T02:02:08;34.20;;;24.67;;
25653;SDS011;13511;48.622;9.230;2023-03-01T02:04:34;33.65;;;25.40;;
25653;SDS011;13511;48.622;9.230;2023-03-01T02:07:05;30.50;;;24.20;;
25653;SDS011;13511;48.622;9.230;2023-03-01T02:09:32;31.13;;;24.55;;
25653;SDS011;13511;48.622;9.230;2023-03-01T02:11:59;31.38;;;24.63;;
25653;SDS011;13511;48.622;9.230;2023-03-01T02:14:25;33.53;;;25.42;;
25653;SDS011;13511;48.622;9.230;2023-03-01T02:16:51;33.63;;;25.98;;
25653;SDS011;13511;48.622;9.230;2023-03-01T02:19:23;33.42;;;26.42;;
25653;SDS011;13511;48.622;9.230;2023-03-01T02:27:05;34.17;;;24.63;;
25653;SDS011;13511;48.622;9.230;2023-03-01T02:29:31;37.30;;;26.52;;
25653;SDS011;13511;48.622;9.230;2023-03-01T02:31:58;32.72;;;26.35;;
25653;SDS011;13511;48.622;9.230;2023-03-01T02:34:26;35.35;;;27.02;;
25653;SDS011;13511;48.622;9.230;2023-03-01T02:37:00;36.35;;;26.20;;
25653;SDS011;13511;48.622;9.230;2023-03-01T02:42:07;36.42;;;26.15;;
25653;SDS011;13511;48.622;9.230;2023-03-01T02:44:35;33.40;;;26.38;;
25653;SDS011;13511;48.622;9.230;2023-03-01T02:47:02;33.50;;;25.20;;
25653;SDS011;13511;48.622;9.230;2023-03-01T02:49:30;34.05;;;25.95;;
25653;SDS011;13511;48.622;9.230;2023-03-01T02:54:31;31.60;;;25.50;;
25653;SDS011;13511;48.622;9.230;2023-03-01T02:56:59;35.88;;;25.10;;
25653;SDS011;13511;48.622;9.230;2023-03-01T02:59:27;32.60;;;25.35;;
25653;SDS011;13511;48.622;9.230;2023-03-01T03:01:54;33.63;;;25.27;;
25653;SDS011;13511;48.622;9.230;2023-03-01T03:04:20;33.30;;;25.70;;
25653;SDS011;13511;48.622;9.230;2023-03-01T03:06:47;32.35;;;24.85;;
25653;SDS011;13511;48.622;9.230;2023-03-01T03:09:14;32.65;;;25.20;;
25653;SDS011;13511;48.622;9.230;2023-03-01T03:11:40;31.65;;;24.83;;
25653;SDS011;13511;48.622;9.230;2023-03-01T03:14:08;31.10;;;25.10;;
25653;SDS011;13511;48.622;9.230;2023-03-01T03:16:48;34.83;;;25.80;;
25653;SDS011;13511;48.622;9.230;2023-03-01T03:19:14;33.75;;;25.48;;
25653;SDS011;13511;48.622;9.230;2023-03-01T03:21:41;32.72;;;24.80;;
25653;SDS011;13511;48.622;9.230;2023-03-01T03:24:07;30.95;;;24.55;;
25653;SDS011;13511;48.622;9.230;2023-03-01T03:26:33;33.22;;;24.65;;
25653;SDS011;13511;48.622;9.230;2023-03-01T03:28:59;35.13;;;25.98;;
25653;SDS011;13511;48.622;9.230;2023-03-01T03:31:26;38.22;;;25.15;;
25653;SDS011;13511;48.622;9.230;2023-03-01T03:33:52;34.35;;;25.08;;
25653;SDS011;13511;48.622;9.230;2023-03-01T03:36:19;32.25;;;24.85;;
25653;SDS011;13511;48.622;9.230;2023-03-01T03:38:45;30.73;;;24.67;;
25653;SDS011;13511;48.622;9.230;2023-03-01T03:41:11;30.67;;;24.83;;
25653;SDS011;13511;48.622;9.230;2023-03-01T03:43:38;29.92;;;24.77;;
25653;SDS011;13511;48.622;9.230;2023-03-01T03:46:05;32.92;;;25.67;;
25653;SDS011;13511;48.622;9.230;2023-03-01T03:48:33;29.17;;;24.58;;
25653;SDS011;13511;48.622;9.230;2023-03-01T03:50:59;33.60;;;24.98;;
25653;SDS011;13511;48.622;9.230;2023-03-01T03:53:26;33.60;;;25.73;;
25653;SDS011;13511;48.622;9.230;2023-03-01T03:55:52;33.53;;;25.05;;
25653;SDS011;13511;48.622;9.230;2023-03-01T03:58:20;29.27;;;23.85;;
25653;SDS011;13511;48.622;9.230;2023-03-01T04:00:47;30.13;;;25.50;;
25653;SDS011;13511;48.622;9.230;2023-03-01T04:03:14;33.33;;;24.80;;
25653;SDS011;13511;48.622;9.230;2023-03-01T04:05:40;32.38;;;24.65;;
25653;SDS011;13511;48.622;9.230;2023-03-01T04:08:06;44.13;;;25.75;;
25653;SDS011;13511;48.622;9.230;2023-03-01T04:10:34;32.78;;;25.17;;
25653;SDS011;13511;48.622;9.230;2023-03-01T04:13:01;28.70;;;24.33;;
25653;SDS011;13511;48.622;9.230;2023-03-01T04:15:28;30.40;;;25.00;;
25653;SDS011;13511;48.622;9.230;2023-03-01T04:17:54;29.60;;;24.48;;
25653;SDS011;13511;48.622;9.230;2023-03-01T04:20:25;33.25;;;25.00;;
25653;SDS011;13511;48.622;9.230;2023-03-01T04:22:58;35.70;;;25.33;;
25653;SDS011;13511;48.622;9.230;2023-03-01T04:25:35;31.10;;;24.23;;
25653;SDS011;13511;48.622;9.230;2023-03-01T04:28:01;30.92;;;24.55;;
25653;SDS011;13511;48.622;9.230;2023-03-01T04:30:27;28.98;;;23.92;;
25653;SDS011;13511;48.622;9.230;2023-03-01T04:32:53;34.10;;;25.88;;
25653;SDS011;13511;48.622;9.230;2023-03-01T04:35:19;36.33;;;26.45;;
25653;SDS011;13511;48.622;9.230;2023-03-01T04:37:45;31.23;;;24.85;;
25653;SDS011;13511;48.622;9.230;2023-03-01T04:40:11;31.83;;;25.30;;
25653;SDS011;13511;48.622;9.230;2023-03-01T04:42:40;31.20;;;24.58;;
25653;SDS011;13511;48.622;9.230;2023-03-01T04:45:07;34.95;;;26.27;;
25653;SDS011;13511;48.622;9.230;2023-03-01T04:47:38;34.90;;;26.90;;
25653;SDS011;13511;48.622;9.230;2023-03-01T04:50:04;36.38;;;26.42;;
25653;SDS011;13511;48.622;9.230;2023-03-01T04:52:30;36.70;;;26.85;;
25653;SDS011;13511;48.622;9.230;2023-03-01T04:54:56;31.08;;;25.90;;
25653;SDS011;13511;48.622;9.230;2023-03-01T04:57:22;33.95;;;26.48;;
25653;SDS011;13511;48.622;9.230;2023-03-01T04:59:48;32.90;;;25.52;;
25653;SDS011;13511;48.622;9.230;2023-03-01T05:02:14;34.28;;;25.77;;
25653;SDS011;13511;48.622;9.230;2023-03-01T05:04:40;33.38;;;25.65;;
25653;SDS011;13511;48.622;9.230;2023-03-01T05:07:06;38.72;;;25.45;;
25653;SDS011;13511;48.622;9.230;2023-03-01T05:09:32;36.10;;;25.83;;
25653;SDS011;13511;48.622;9.230;2023-03-01T05:11:58;36.28;;;27.50;;
25653;SDS011;13511;48.622;9.230;2023-03-01T05:14:24;36.30;;;26.80;;
25653;SDS011;13511;48.622;9.230;2023-03-01T05:16:50;34.55;;;26.02;;
25653;SDS011;13511;48.622;9.230;2023-03-01T05:19:16;47.53;;;31.95;;
25653;SDS011;13511;48.622;9.230;2023-03-01T05:21:47;60.35;;;36.47;;
25653;SDS011;13511;48.622;9.230;2023-03-01T05:24:29;50.42;;;34.13;;
25653;SDS011;13511;48.622;9.230;2023-03-01T05:26:56;46.58;;;32.92;;
25653;SDS011;13511;48.622;9.230;2023-03-01T05:29:23;44.13;;;30.67;;
25653;SDS011;13511;48.622;9.230;2023-03-01T05:31:52;48.53;;;32.17;;
25653;SDS011;13511;48.622;9.230;2023-03-01T05:34:22;40.72;;;31.10;;
25653;SDS011;13511;48.622;9.230;2023-03-01T05:36:48;41.05;;;28.77;;
25653;SDS011;13511;48.622;9.230;2023-03-01T05:39:18;38.72;;;30.08;;
25653;SDS011;13511;48.622;9.230;2023-03-01T05:41:44;39.03;;;28.20;;
25653;SDS011;13511;48.622;9.230;2023-03-01T05:44:10;43.90;;;28.92;;
25653;SDS011;13511;48.622;9.230;2023-03-01T05:46:37;40.97;;;30.48;;
25653;SDS011;13511;48.622;9.230;2023-03-01T05:49:03;42.17;;;29.75;;
25653;SDS011;13511;48.622;9.230;2023-03-01T05:51:29;39.70;;;29.98;;
25653;SDS011;13511;48.622;9.230;2023-03-01T05:53:55;39.20;;;29.95;;
25653;SDS011;13511;48.622;9.230;2023-03-01T05:56:21;37.17;;;29.38;;
25653;SDS011;13511;48.622;9.230;2023-03-01T05:58:48;41.55;;;30.83;;
25653;SDS011;13511;48.622;9.230;2023-03-01T06:01:14;43.28;;;29.73;;
25653;SDS011;13511;48.622;9.230;2023-03-01T06:03:40;43.47;;;30.27;;
25653;SDS011;13511;48.622;9.230;2023-03-01T06:06:06;40.50;;;29.95;;
25653;SDS011;13511;48.622;9.230;2023-03-01T06:08:32;38.20;;;30.00;;
25653;SDS011;13511;48.622;9.230;2023-03-01T06:10:58;42.90;;;31.48;;
25653;SDS011;13511;48.622;9.230;2023-03-01T06:13:25;45.55;;;30.58;;
25653;SDS011;13511;48.622;9.230;2023-03-01T06:15:51;40.92;;;29.63;;
25653;SDS011;13511;48.622;9.230;2023-03-01T06:18:17;41.67;;;30.00;;
25653;SDS011;13511;48.622;9.230;2023-03-01T06:20:43;38.55;;;27.90;;
25653;SDS011;13511;48.622;9.230;2023-03-01T06:23:09;41.15;;;29.92;;
25653;SDS011;13511;48.622;9.230;2023-03-01T06:25:35;41.90;;;29.05;;
25653;SDS011;13511;48.622;9.230;2023-03-01T06:28:01;38.00;;;28.75;;
25653;SDS011;13511;48.622;9.230;2023-03-01T06:30:27;38.38;;;29.65;;
25653;SDS011;13511;48.622;9.230;2023-03-01T06:32:53;40.35;;;29.38;;
25653;SDS011;13511;48.622;9.230;2023-03-01T06:35:25;40.50;;;28.83;;
25653;SDS011;13511;48.622;9.230;2023-03-01T06:37:54;41.33;;;29.23;;
25653;SDS011;13511;48.622;9.230;2023-03-01T06:40:21;40.88;;;28.23;;
25653;SDS011;13511;48.622;9.230;2023-03-01T06:42:48;36.63;;;28.23;;
25653;SDS011;13511;48.622;9.230;2023-03-01T06:45:14;36.95;;;28.55;;
25653;SDS011;13511;48.622;9.230;2023-03-01T06:47:40;40.20;;;28.42;;
25653;SDS011;13511;48.622;9.230;2023-03-01T06:50:07;40.38;;;28.83;;
25653;SDS011;13511;48.622;9.230;2023-03-01T06:52:33;38.25;;;29.00;;
25653;SDS011;13511;48.622;9.230;2023-03-01T06:54:59;37.35;;;28.60;;
25653;SDS011;13511;48.622;9.230;2023-03-01T06:57:25;41.33;;;29.48;;
25653;SDS011;13511;48.622;9.230;2023-03-01T06:59:51;39.67;;;29.25;;
25653;SDS011;13511;48.622;9.230;2023-03-01T07:02:17;38.85;;;29.42;;
25653;SDS011;13511;48.622;9.230;2023-03-01T07:04:43;45.13;;;29.42;;
25653;SDS011;13511;48.622;9.230;2023-03-01T07:07:09;42.53;;;29.30;;
25653;SDS011;13511;48.622;9.230;2023-03-01T07:09:35;43.15;;;29.45;;
25653;SDS011;13511;48.622;9.230;2023-03-01T07:12:01;38.97;;;29.08;;
25653;SDS011;13511;48.622;9.230;2023-03-01T07:14:27;42.40;;;30.02;;
25653;SDS011;13511;48.622;9.230;2023-03-01T07:16:54;40.65;;;30.38;;
25653;SDS011;13511;48.622;9.230;2023-03-01T07:19:20;37.88;;;28.73;;
25653;SDS011;13511;48.622;9.230;2023-03-01T07:21:47;37.70;;;28.92;;
25653;SDS011;13511;48.622;9.230;2023-03-01T07:24:13;44.25;;;29.50;;
25653;SDS011;13511;48.622;9.230;2023-03-01T07:26:39;40.55;;;29.70;;
25653;SDS011;13511;48.622;9.230;2023-03-01T07:29:05;42.08;;;28.65;;
25653;SDS011;13511;48.622;9.230;2023-03-01T07:31:32;40.42;;;29.95;;
25653;SDS011;13511;48.622;9.230;2023-03-01T07:33:58;37.28;;;28.65;;
25653;SDS011;13511;48.622;9.230;2023-03-01T07:36:24;33.90;;;28.17;;
25653;SDS011;13511;48.622;9.230;2023-03-01T07:38:50;38.95;;;29.08;;
25653;SDS011;13511;48.622;9.230;2023-03-01T07:41:17;40.50;;;29.98;;
25653;SDS011;13511;48.622;9.230;2023-03-01T07:43:43;39.42;;;29.58;;
25653;SDS011;13511;48.622;9.230;2023-03-01T07:46:09;36.80;;;29.58;;
25653;SDS011;13511;48.622;9.230;2023-03-01T07:48:35;41.92;;;29.95;;
25653;SDS011;13511;48.622;9.230;2023-03-01T07:51:02;38.72;;;30.58;;
25653;SDS011;13511;48.622;9.230;2023-03-01T07:53:28;39.83;;;28.95;;
25653;SDS011;13511;48.622;9.230;2023-03-01T07:58:27;40.20;;;30.88;;
25653;SDS011;13511;48.622;9.230;2023-03-01T08:00:54;41.60;;;29.08;;
25653;SDS011;13511;48.622;9.230;2023-03-01T08:03:19;36.97;;;29.17;;
25653;SDS011;13511;48.622;9.230;2023-03-01T08:05:45;43.50;;;31.05;;
25653;SDS011;13511;48.622;9.230;2023-03-01T08:08:11;35.13;;;27.95;;
25653;SDS011;13511;48.622;9.230;2023-03-01T08:10:37;39.22;;;28.90;;
25653;SDS011;13511;48.622;9.230;2023-03-01T08:13:03;39.08;;;29.50;;
25653;SDS011;13511;48.622;9.230;2023-03-01T08:15:29;38.00;;;29.92;;
25653;SDS011;13511;48.622;9.230;2023-03-01T08:17:55;36.28;;;29.05;;
25653;SDS011;13511;48.622;9.230;2023-03-01T08:20:21;39.97;;;29.88;;
25653;SDS011;13511;48.622;9.230;2023-03-01T08:22:47;39.47;;;30.05;;
25653;SDS011;13511;48.622;9.230;2023-03-01T08:25:13;37.80;;;29.10;;
25653;SDS011;13511;48.622;9.230;2023-03-01T08:27:39;43.58;;;28.88;;
25653;SDS011;13511;48.622;9.230;2023-03-01T08:30:06;34.80;;;28.30;;
25653;SDS011;13511;48.622;9.230;2023-03-01T08:32:35;37.85;;;28.58;;
25653;SDS011;13511;48.622;9.230;2023-03-01T08:35:01;37.25;;;28.95;;
25653;SDS011;13511;48.622;9.230;2023-03-01T08:37:27;34.45;;;28.10;;
25653;SDS011;13511;48.622;9.230;2023-03-01T08:39:55;34.15;;;27.50;;
25653;SDS011;13511;48.622;9.230;2023-03-01T08:42:21;32.85;;;27.05;;
25653;SDS011;13511;48.622;9.230;2023-03-01T08:44:47;35.35;;;27.90;;
25653;SDS011;13511;48.622;9.230;2023-03-01T08:47:13;35.17;;;26.90;;
25653;SDS011;13511;48.622;9.230;2023-03-01T08:49:39;34.85;;;26.42;;
25653;SDS011;13511;48.622;9.230;2023-03-01T08:52:05;33.08;;;25.70;;
25653;SDS011;13511;48.622;9.230;2023-03-01T08:54:31;35.88;;;27.95;;
25653;SDS011;13511;48.622;9.230;2023-03-01T08:56:57;38.60;;;26.58;;
25653;SDS011;13511;48.622;9.230;2023-03-01T08:59:24;38.13;;;27.38;;
25653;SDS011;13511;48.622;9.230;2023-03-01T09:01:51;39.00;;;29.27;;
25653;SDS011;13511;48.622;9.230;2023-03-01T09:04:17;40.33;;;27.35;;
25653;SDS011;13511;48.622;9.230;2023-03-01T09:06:43;33.85;;;26.70;;
25653;SDS011;13511;48.622;9.230;2023-03-01T09:09:14;33.83;;;26.55;;
25653;SDS011;13511;48.622;9.230;2023-03-01T09:11:40;34.53;;;26.13;;
25653;SDS011;13511;48.622;9.230;2023-03-01T09:14:07;35.42;;;27.40;;
25653;SDS011;13511;48.622;9.230;2023-03-01T09:16:33;37.35;;;28.73;;
25653;SDS011;13511;48.622;9.230;2023-03-01T09:19:01;32.47;;;27.70;;
25653;SDS011;13511;48.622;9.230;2023-03-01T09:21:27;35.28;;;26.67;;
25653;SDS011;13511;48.622;9.230;2023-03-01T09:23:53;34.28;;;26.65;;
25653;SDS011;13511;48.622;9.230;2023-03-01T09:26:21;37.88;;;26.98;;
25653;SDS011;13511;48.622;9.230;2023-03-01T09:28:48;34.67;;;27.02;;
25653;SDS011;13511;48.622;9.230;2023-03-01T09:31:15;34.10;;;27.65;;
25653;SDS011;13511;48.622;9.230;2023-03-01T09:33:42;30.02;;;26.65;;
25653;SDS011;13511;48.622;9.230;2023-03-01T09:36:11;30.85;;;26.58;;
25653;SDS011;13511;48.622;9.230;2023-03-01T09:38:37;37.78;;;27.80;;
25653;SDS011;13511;48.622;9.230;2023-03-01T09:41:08;32.00;;;28.02;;
25653;SDS011;13511;48.622;9.230;2023-03-01T09:43:45;33.13;;;27.23;;
25653;SDS011;13511;48.622;9.230;2023-03-01T09:46:13;35.03;;;27.02;;
25653;SDS011;13511;48.622;9.230;2023-03-01T09:48:42;34.45;;;26.70;;
25653;SDS011;13511;48.622;9.230;2023-03-01T09:51:12;32.63;;;26.92;;
25653;SDS011;13511;48.622;9.230;2023-03-01T09:53:39;37.22;;;27.33;;
25653;SDS011;13511;48.622;9.230;2023-03-01T09:56:11;34.33;;;27.95;;
25653;SDS011;13511;48.622;9.230;2023-03-01T09:58:53;33.10;;;26.38;;
25653;SDS011;13511;48.622;9.230;2023-03-01T10:01:25;35.65;;;28.10;;
25653;SDS011;13511;48.622;9.230;2023-03-01T10:06:37;31.50;;;26.85;;
25653;SDS011;13511;48.622;9.230;2023-03-01T10:09:05;34.13;;;27.50;;
25653;SDS011;13511;48.622;9.230;2023-03-01T10:11:41;34.85;;;27.10;;
25653;SDS011;13511;48.622;9.230;2023-03-01T10:16:56;39.90;;;27.55;;
25653;SDS011;13511;48.622;9.230;2023-03-01T10:19:28;33.53;;;26.67;;
25653;SDS011;13511;48.622;9.230;2023-03-01T10:21:57;29.35;;;25.65;;
25653;SDS011;13511;48.622;9.230;2023-03-01T10:24:24;35.10;;;27.52;;
25653;SDS011;13511;48.622;9.230;2023-03-01T10:26:57;32.78;;;26.88;;
25653;SDS011;13511;48.622;9.230;2023-03-01T10:29:30;35.13;;;26.60;;
25653;SDS011;13511;48.622;9.230;2023-03-01T10:31:57;31.77;;;26.23;;
25653;SDS011;13511;48.622;9.230;2023-03-01T10:34:27;33.75;;;26.08;;
25653;SDS011;13511;48.622;9.230;2023-03-01T10:36:55;33.50;;;26.55;;
25653;SDS011;13511;48.622;9.230;2023-03-01T10:39:23;30.25;;;25.80;;
25653;SDS011;13511;48.622;9.230;2023-03-01T10:49:56;34.72;;;25.38;;
25653;SDS011;13511;48.622;9.230;2023-03-01T10:52:24;28.75;;;24.92;;
25653;SDS011;13511;48.622;9.230;2023-03-01T10:54:55;31.00;;;25.27;;
25653;SDS011;13511;48.622;9.230;2023-03-01T10:57:35;26.88;;;24.00;;
25653;SDS011;13511;48.622;9.230;2023-03-01T11:00:14;27.30;;;22.70;;
25653;SDS011;13511;48.622;9.230;2023-03-01T11:02:42;30.23;;;23.55;;
25653;SDS011;13511;48.622;9.230;2023-03-01T11:07:50;27.58;;;23.08;;
25653;SDS011;13511;48.622;9.230;2023-03-01T11:10:18;25.98;;;22.88;;
25653;SDS011;13511;48.622;9.230;2023-03-01T11:12:44;26.88;;;22.88;;
25653;SDS011;13511;48.622;9.230;2023-03-01T11:15:19;25.52;;;22.02;;
25653;SDS011;13511;48.622;9.230;2023-03-01T11:17:46;24.75;;;22.05;;
25653;SDS011;13511;48.622;9.230;2023-03-01T11:22:40;24.60;;;21.98;;
25653;SDS011;13511;48.622;9.230;2023-03-01T11:25:10;26.63;;;22.50;;
25653;SDS011;13511;48.622;9.230;2023-03-01T11:27:40;26.80;;;23.98;;
25653;SDS011;13511;48.622;9.230;2023-03-01T11:32:35;24.17;;;21.23;;
25653;SDS011;13511;48.622;9.230;2023-03-01T11:35:18;24.70;;;22.23;;
25653;SDS011;13511;48.622;9.230;2023-03-01T11:37:59;23.98;;;21.48;;
25653;SDS011;13511;48.622;9.230;2023-03-01T11:40:29;23.98;;;21.45;;
25653;SDS011;13511;48.622;9.230;2023-03-01T11:43:01;23.52;;;21.10;;
25653;SDS011;13511;48.622;9.230;2023-03-01T11:50:43;22.70;;;20.42;;
25653;SDS011;13511;48.622;9.230;2023-03-01T12:08:20;21.67;;;19.60;;
25653;SDS011;13511;48.622;9.230;2023-03-01T12:18:21;22.55;;;20.33;;
25653;SDS011;13511;48.622;9.230;2023-03-01T12:31:41;23.50;;;21.13;;
25653;SDS011;13511;48.622;9.230;2023-03-01T12:37:03;21.30;;;19.35;;
25653;SDS011;13511;48.622;9.230;2023-03-01T12:39:45;21.45;;;19.35;;
25653;SDS011;13511;48.622;9.230;2023-03-01T12:42:41;23.48;;;21.05;;
25653;SDS011;13511;48.622;9.230;2023-03-01T12:50:16;23.25;;;21.10;;
25653;SDS011;13511;48.622;9.230;2023-03-01T12:52:57;23.88;;;21.42;;
25653;SDS011;13511;48.622;9.230;2023-03-01T12:57:57;22.75;;;20.77;;
25653;SDS011;13511;48.622;9.230;2023-03-01T13:01:13;23.92;;;21.38;;
25653;SDS011;13511;48.622;9.230;2023-03-01T13:03:21;26.15;;;23.40;;
25653;SDS011;13511;48.622;9.230;2023-03-01T13:06:04;22.98;;;20.67;;
25653;SDS011;13511;48.622;9.230;2023-03-01T13:08:36;22.30;;;20.20;;
25653;SDS011;13511;48.622;9.230;2023-03-01T13:11:06;22.75;;;20.38;;
25653;SDS011;13511;48.622;9.230;2023-03-01T13:13:37;23.15;;;20.77;;
25653;SDS011;13511;48.622;9.230;2023-03-01T13:18:48;21.60;;;19.42;;
25653;SDS011;13511;48.622;9.230;2023-03-01T13:21:14;22.45;;;20.25;;
25653;SDS011;13511;48.622;9.230;2023-03-01T13:23:54;21.40;;;19.50;;
25653;SDS011;13511;48.622;9.230;2023-03-01T13:26:20;22.58;;;20.58;;
25653;SDS011;13511;48.622;9.230;2023-03-01T13:31:56;21.55;;;19.75;;
25653;SDS011;13511;48.622;9.230;2023-03-01T13:34:02;23.35;;;21.10;;
25653;SDS011;13511;48.622;9.230;2023-03-01T13:49:48;22.40;;;20.10;;
25653;SDS011;13511;48.622;9.230;2023-03-01T13:52:35;22.92;;;20.83;;
25653;SDS011;13511;48.622;9.230;2023-03-01T13:55:03;22.02;;;19.92;;
25653;SDS011;13511;48.622;9.230;2023-03-01T13:57:36;22.08;;;20.08;;
25653;SDS011;13511;48.622;9.230;2023-03-01T14:00:06;23.13;;;20.88;;
25653;SDS011;13511;48.622;9.230;2023-03-01T14:02:32;22.35;;;20.20;;
25653;SDS011;13511;48.622;9.230;2023-03-01T14:05:00;22.33;;;20.25;;
25653;SDS011;13511;48.622;9.230;2023-03-01T14:07:27;22.45;;;20.45;;
25653;SDS011;13511;48.622;9.230;2023-03-01T14:09:58;21.02;;;19.02;;
25653;SDS011;13511;48.622;9.230;2023-03-01T14:15:15;22.15;;;20.08;;
25653;SDS011;13511;48.622;9.230;2023-03-01T14:18:00;22.08;;;19.88;;
25653;SDS011;13511;48.622;9.230;2023-03-01T14:20:30;21.25;;;19.10;;
25653;SDS011;13511;48.622;9.230;2023-03-01T14:22:58;21.30;;;19.35;;
25653;SDS011;13511;48.622;9.230;2023-03-01T14:27:55;21.85;;;19.52;;
25653;SDS011;13511;48.622;9.230;2023-03-01T14:30:23;22.20;;;19.92;;
25653;SDS011;13511;48.622;9.230;2023-03-01T14:32:56;20.73;;;18.92;;
25653;SDS011;13511;48.622;9.230;2023-03-01T14:35:24;21.05;;;18.98;;
25653;SDS011;13511;48.622;9.230;2023-03-01T14:37:50;21.17;;;18.80;;
25653;SDS011;13511;48.622;9.230;2023-03-01T14:40:24;19.45;;;17.77;;
25653;SDS011;13511;48.622;9.230;2023-03-01T14:42:50;21.45;;;19.48;;
25653;SDS011;13511;48.622;9.230;2023-03-01T14:45:17;19.40;;;17.63;;
25653;SDS011;13511;48.622;9.230;2023-03-01T14:47:43;20.75;;;18.77;;
25653;SDS011;13511;48.622;9.230;2023-03-01T14:52:39;24.77;;;18.50;;
25653;SDS011;13511;48.622;9.230;2023-03-01T14:55:18;21.15;;;19.05;;
25653;SDS011;13511;48.622;9.230;2023-03-01T14:57:46;20.23;;;18.45;;
25653;SDS011;13511;48.622;9.230;2023-03-01T15:00:25;20.38;;;18.25;;
25653;SDS011;13511;48.622;9.230;2023-03-01T15:02:53;21.45;;;19.20;;
25653;SDS011;13511;48.622;9.230;2023-03-01T15:05:37;20.00;;;18.10;;
25653;SDS011;13511;48.622;9.230;2023-03-01T15:08:04;21.38;;;19.23;;
25653;SDS011;13511;48.622;9.230;2023-03-01T15:10:35;21.92;;;19.92;;
25653;SDS011;13511;48.622;9.230;2023-03-01T15:13:19;21.95;;;19.95;;
25653;SDS011;13511;48.622;9.230;2023-03-01T15:15:47;22.63;;;20.10;;
25653;SDS011;13511;48.622;9.230;2023-03-01T15:18:18;22.23;;;20.13;;
25653;SDS011;13511;48.622;9.230;2023-03-01T15:20:45;23.10;;;20.80;;
25653;SDS011;13511;48.622;9.230;2023-03-01T15:23:19;23.83;;;21.33;;
25653;SDS011;13511;48.622;9.230;2023-03-01T15:25:46;23.02;;;20.83;;
25653;SDS011;13511;48.622;9.230;2023-03-01T15:28:21;23.13;;;20.80;;
25653;SDS011;13511;48.622;9.230;2023-03-01T15:30:51;23.95;;;21.65;;
25653;SDS011;13511;48.622;9.230;2023-03-01T15:33:19;22.48;;;20.20;;
25653;SDS011;13511;48.622;9.230;2023-03-01T15:35:47;22.70;;;20.45;;
25653;SDS011;13511;48.622;9.230;2023-03-01T15:38:31;22.98;;;20.65;;
25653;SDS011;13511;48.622;9.230;2023-03-01T15:40:58;22.30;;;20.10;;
25653;SDS011;13511;48.622;9.230;2023-03-01T15:43:38;23.67;;;21.25;;
25653;SDS011;13511;48.622;9.230;2023-03-01T15:46:04;22.88;;;20.67;;
25653;SDS011;13511;48.622;9.230;2023-03-01T15:48:30;23.48;;;21.10;;
25653;SDS011;13511;48.622;9.230;2023-03-01T15:50:57;23.52;;;21.08;;
25653;SDS011;13511;48.622;9.230;2023-03-01T15:53:23;22.13;;;19.90;;
25653;SDS011;13511;48.622;9.230;2023-03-01T15:55:49;23.83;;;21.40;;
25653;SDS011;13511;48.622;9.230;2023-03-01T15:58:17;22.73;;;20.60;;
25653;SDS011;13511;48.622;9.230;2023-03-01T16:00:44;23.48;;;21.17;;
25653;SDS011;13511;48.622;9.230;2023-03-01T16:03:10;23.00;;;20.63;;
25653;SDS011;13511;48.622;9.230;2023-03-01T16:05:37;22.05;;;20.05;;
25653;SDS011;13511;48.622;9.230;2023-03-01T16:08:03;24.00;;;21.35;;
25653;SDS011;13511;48.622;9.230;2023-03-01T16:10:31;23.45;;;21.08;;
25653;SDS011;13511;48.622;9.230;2023-03-01T16:12:57;23.25;;;21.02;;
25653;SDS011;13511;48.622;9.230;2023-03-01T16:17:53;22.80;;;20.48;;
25653;SDS011;13511;48.622;9.230;2023-03-01T16:20:19;24.58;;;20.67;;
25653;SDS011;13511;48.622;9.230;2023-03-01T16:22:46;22.95;;;20.55;;
25653;SDS011;13511;48.622;9.230;2023-03-01T16:25:16;22.50;;;20.20;;
25653;SDS011;13511;48.622;9.230;2023-03-01T16:27:43;24.52;;;19.60;;